Justice, Illinois
Current Conditions -  °F | °C
As of 4:53 PM on Monday 22 Dec 2014 (Local Time) from KMDW Reporting Station
Light Rain Light Rain  
Wind Chill: 33°   Ceiling: 600
Heat Index: 40°   Visibility: 1.7mi
Dew Point: 38°   Wind: 12mph
Humidity: 93%   Direction: 120°ESE
Pressure: 29.69"   Gusts: NA
Location:  41.75°N, 87.84°W
Report Text: KMDW 222253Z 12010KT 1 3/4SM -RA BR OVC006 04/03 A2969 RMK AO2 SLP063 P0005 T00440033
Loading
Personal Weather Stations






























Interactive Weather Map New forecast layout! Learn more

10-Day Weather Forecast

Advertisements
Track Severe Weather on mobile